Alice Star — V7UH3 — position and weather

sailwx.info

Track history (hours):
 
Tides and Currents Weather Stations Pressure Air Temp Water Temp Dewpoint Dewpoint Depression Visibility Wind Speed Wind Dir Waves Ship Positions

Alice Star

Last reported at 2018-Jun-20 12:24 UTC. Time now 2018-Jun-20 12:50 UTC.
Position N 46°39' E 031°01'.

Length 175 m; draft 6.3 m.

Type: Cargo ship. MMSI: 538002050.

Date/timePositionNaut miles runAvg speedWind from/ knotsBaromVisibWave heightAir tempDewpointWater temp
2018-Jun-20 12:24N 46°39' E 031°01'0 0.0
2018-Jun-20 12:00N 46°39' E 031°01'0 0.0
2018-Jun-19 09:51N 46°39' E 031°01'0 0.0
2018-Jun-19 03:42N 46°39' E 031°01'0 0.0
2018-Jun-19 01:51N 46°39' E 031°01'0 0.0
2018-Jun-19 01:30N 46°39' E 031°01'0 0.0
2018-Jun-19 00:54N 46°39' E 031°01'0 0.0
2018-Jun-19 00:30N 46°39' E 031°01'0 0.0
2018-Jun-18 23:51N 46°39' E 031°01'0 0.0
2018-Jun-18 23:21N 46°39' E 031°01'0 0.0
2018-Jun-18 22:45N 46°39' E 031°01'0 0.0
2018-Jun-18 22:27N 46°39' E 031°01'0 0.0
2018-Jun-18 21:54N 46°39' E 031°01'0 0.0
2018-Jun-18 21:21N 46°39' E 031°01'0 0.0
2018-Jun-18 20:57N 46°39' E 031°01'0 0.0
2018-Jun-18 03:51N 46°39' E 031°01'0 0.0
2018-Jun-18 03:27N 46°39' E 031°01'0 0.0
2018-Jun-18 02:59N 46°39' E 031°01'0 0.0
2018-Jun-18 01:44N 46°39' E 031°01'0 0.0
2018-Jun-18 01:29N 46°39' E 031°01'0 0.0
2018-Jun-18 01:00N 46°39' E 031°01'0 0.0
2018-Jun-18 00:30N 46°39' E 031°01'0 0.0
2018-Jun-17 17:26N 46°39' E 031°01'0 0.0
2018-Jun-17 06:38N 46°39' E 031°01'0 0.0
2018-Jun-17 06:29N 46°39' E 031°01'0 0.0
2018-Jun-17 05:53N 46°39' E 031°01'0 0.0
2018-Jun-17 04:35N 46°39' E 031°01'0 0.1
2018-Jun-17 04:29N 46°39' E 031°01'0 0.0
2018-Jun-17 03:59N 46°39' E 031°01'0 0.0
2018-Jun-17 03:29N 46°39' E 031°01'0 0.0
2018-Jun-17 02:59N 46°39' E 031°01'0 0.0
2018-Jun-16 18:50N 46°39' E 031°01'0 0.0
2018-Jun-16 17:50N 46°39' E 031°01'0 0.0
2018-Jun-16 17:29N 46°39' E 031°01'0 0.0
2018-Jun-16 16:50N 46°39' E 031°01'0 0.0
2018-Jun-16 07:32N 46°39' E 031°01'0 0.0
2018-Jun-16 07:14N 46°39' E 031°01'0 0.0
2018-Jun-16 06:47N 46°39' E 031°01'0 0.0
2018-Jun-16 06:23N 46°39' E 031°01'4 0.2
2018-Jun-15 07:16N 46°36' E 031°01'2 6.2
2018-Jun-15 07:00N 46°34' E 031°00'4 6.1
2018-Jun-15 06:25N 46°31' E 030°57'3 8.3
2018-Jun-15 06:00N 46°28' E 030°57'3 5.1
2018-Jun-15 05:28N 46°25' E 030°57'1 1.5
2018-Jun-15 05:00N 46°25' E 030°57'0 0.8
2018-Jun-15 04:26N 46°24' E 030°57'511.3
2018-Jun-15 03:59N 46°19' E 030°57'611.9
2018-Jun-15 03:28N 46°14' E 031°02'612.0
2018-Jun-15 03:00N 46°10' E 031°07'611.7
2018-Jun-15 02:30N 46°04' E 031°09'612.1
2018-Jun-15 02:00N 45°58' E 031°10'911.9
2018-Jun-15 01:16N 45°50' E 031°11'311.7
2018-Jun-15 01:00N 45°46' E 031°11'611.9
2018-Jun-15 00:30N 45°40' E 031°12'611.9
2018-Jun-15 00:00N 45°35' E 031°13'612.1
2018-Jun-14 23:31N 45°29' E 031°14'1512.1
2018-Jun-14 22:15N 45°13' E 031°16'311.9
2018-Jun-14 22:00N 45°11' E 031°16'612.0
2018-Jun-14 21:30N 45°05' E 031°17'611.9
2018-Jun-14 21:00N 44°59' E 031°18'611.9
2018-Jun-14 20:31N 44°53' E 031°18'612.0
2018-Jun-14 20:00N 44°47' E 031°19'611.7
2018-Jun-14 19:30N 44°41' E 031°20'611.3
2018-Jun-14 18:59N 44°37' E 031°26'612.2
2018-Jun-14 18:29N 44°33' E 031°33'612.5
2018-Jun-14 18:00N 44°30' E 031°40'114 7.5
2018-Jun-14 02:50N 42°48' E 032°51'411.1
2018-Jun-14 02:29N 42°46' E 032°46'1111.5
2018-Jun-14 01:29N 42°43' E 032°32'811.4
2018-Jun-14 00:49N 42°40' E 032°22'411.4
2018-Jun-14 00:30N 42°39' E 032°17'611.2
2018-Jun-14 00:00N 42°37' E 032°10'511.1
2018-Jun-13 23:30N 42°35' E 032°03'611.0
2018-Jun-13 23:00N 42°33' E 031°56'611.1
2018-Jun-13 22:30N 42°31' E 031°49'611.3
2018-Jun-13 22:00N 42°30' E 031°42'611.3
2018-Jun-13 21:30N 42°28' E 031°34'611.1
2018-Jun-13 20:57N 42°26' E 031°26'1811.5
2018-Jun-13 19:21N 42°20' E 031°03'511.5
2018-Jun-13 18:55N 42°18' E 030°57'511.5
2018-Jun-13 18:30N 42°16' E 030°51'611.4
2018-Jun-13 18:00N 42°14' E 030°43'611.3
2018-Jun-13 17:30N 42°12' E 030°36'611.5
2018-Jun-13 17:00N 42°10' E 030°29'611.6
2018-Jun-13 16:29N 42°08' E 030°21'511.6
2018-Jun-13 16:00N 42°06' E 030°14'611.6
2018-Jun-13 15:30N 42°05' E 030°07'611.5
2018-Jun-13 15:00N 42°03' E 029°59'611.7
2018-Jun-13 14:30N 42°01' E 029°52'611.7
2018-Jun-13 14:00N 41°56' E 029°47'1012.0
2018-Jun-13 13:08N 41°47' E 029°39'212.0
2018-Jun-13 13:00N 41°46' E 029°38'612.0
2018-Jun-13 12:30N 41°41' E 029°33'612.1
2018-Jun-13 12:00N 41°36' E 029°29'712.1
2018-Jun-13 11:28N 41°31' E 029°24'612.0
2018-Jun-13 10:58N 41°26' E 029°19'711.5
2018-Jun-13 10:21N 41°20' E 029°14'411.8
2018-Jun-13 09:59N 41°16' E 029°11'510.8
2018-Jun-13 09:29N 41°12' E 029°07'18 8.0
2018-Jun-13 07:16N 40°55' E 028°60'11 4.4
2018-Jun-13 04:51N 40°45' E 029°01'0 0.7
2018-Jun-13 04:30N 40°45' E 029°01'0 0.7
2018-Jun-13 04:00N 40°45' E 029°01'0 0.8
2018-Jun-13 03:30N 40°46' E 029°01'0 0.8
2018-Jun-13 02:59N 40°46' E 029°01'0 0.7
2018-Jun-13 02:30N 40°46' E 029°01'1 0.6
2018-Jun-13 01:41N 40°47' E 029°01'0 0.7
2018-Jun-13 01:29N 40°47' E 029°01'0 0.8
2018-Jun-13 01:00N 40°47' E 029°01'0 0.8
2018-Jun-13 00:30N 40°48' E 029°01'0 0.8
2018-Jun-12 23:59N 40°48' E 029°01'0 0.7
2018-Jun-12 23:30N 40°49' E 029°00'3 4.1
2018-Jun-12 22:44N 40°51' E 028°58'159 6.9
2018-Jun-11 23:35N 39°46' E 025°47'13311.1
2018-Jun-11 11:36N 37°34' E 025°52'111.0
2018-Jun-11 11:30N 37°33' E 025°52'510.8
2018-Jun-11 11:00N 37°28' E 025°54'  
Track history (hours):
 
Tides and Currents Weather Stations Pressure Air Temp Water Temp Dewpoint Dewpoint Depression Visibility Wind Speed Wind Dir Waves Ship Positions

Alice Star

Last reported at 2018-Jun-20 12:24 UTC. Time now 2018-Jun-20 12:50 UTC.
Position N 46°39' E 031°01'.

Length 175 m; draft 6.3 m.

Type: Cargo ship. MMSI: 538002050.

Date/timePositionNaut miles runAvg speedWind from/ knotsBaromVisibWave heightAir tempDewpointWater temp
2018-Jun-20 12:24N 46°39' E 031°01'0 0.0
2018-Jun-20 12:00N 46°39' E 031°01'0 0.0
2018-Jun-19 09:51N 46°39' E 031°01'0 0.0
2018-Jun-19 03:42N 46°39' E 031°01'0 0.0
2018-Jun-19 01:51N 46°39' E 031°01'0 0.0
2018-Jun-19 01:30N 46°39' E 031°01'0 0.0
2018-Jun-19 00:54N 46°39' E 031°01'0 0.0
2018-Jun-19 00:30N 46°39' E 031°01'0 0.0
2018-Jun-18 23:51N 46°39' E 031°01'0 0.0
2018-Jun-18 23:21N 46°39' E 031°01'0 0.0
2018-Jun-18 22:45N 46°39' E 031°01'0 0.0
2018-Jun-18 22:27N 46°39' E 031°01'0 0.0
2018-Jun-18 21:54N 46°39' E 031°01'0 0.0
2018-Jun-18 21:21N 46°39' E 031°01'0 0.0
2018-Jun-18 20:57N 46°39' E 031°01'0 0.0
2018-Jun-18 03:51N 46°39' E 031°01'0 0.0
2018-Jun-18 03:27N 46°39' E 031°01'0 0.0
2018-Jun-18 02:59N 46°39' E 031°01'0 0.0
2018-Jun-18 01:44N 46°39' E 031°01'0 0.0
2018-Jun-18 01:29N 46°39' E 031°01'0 0.0
2018-Jun-18 01:00N 46°39' E 031°01'0 0.0
2018-Jun-18 00:30N 46°39' E 031°01'0 0.0
2018-Jun-17 17:26N 46°39' E 031°01'0 0.0
2018-Jun-17 06:38N 46°39' E 031°01'0 0.0
2018-Jun-17 06:29N 46°39' E 031°01'0 0.0
2018-Jun-17 05:53N 46°39' E 031°01'0 0.0
2018-Jun-17 04:35N 46°39' E 031°01'0 0.1
2018-Jun-17 04:29N 46°39' E 031°01'0 0.0
2018-Jun-17 03:59N 46°39' E 031°01'0 0.0
2018-Jun-17 03:29N 46°39' E 031°01'0 0.0
2018-Jun-17 02:59N 46°39' E 031°01'0 0.0
2018-Jun-16 18:50N 46°39' E 031°01'0 0.0
2018-Jun-16 17:50N 46°39' E 031°01'0 0.0
2018-Jun-16 17:29N 46°39' E 031°01'0 0.0
2018-Jun-16 16:50N 46°39' E 031°01'0 0.0
2018-Jun-16 07:32N 46°39' E 031°01'0 0.0
2018-Jun-16 07:14N 46°39' E 031°01'0 0.0
2018-Jun-16 06:47N 46°39' E 031°01'0 0.0
2018-Jun-16 06:23N 46°39' E 031°01'4 0.2
2018-Jun-15 07:16N 46°36' E 031°01'2 6.2
2018-Jun-15 07:00N 46°34' E 031°00'4 6.1
2018-Jun-15 06:25N 46°31' E 030°57'3 8.3
2018-Jun-15 06:00N 46°28' E 030°57'3 5.1
2018-Jun-15 05:28N 46°25' E 030°57'1 1.5
2018-Jun-15 05:00N 46°25' E 030°57'0 0.8
2018-Jun-15 04:26N 46°24' E 030°57'511.3
2018-Jun-15 03:59N 46°19' E 030°57'611.9
2018-Jun-15 03:28N 46°14' E 031°02'612.0
2018-Jun-15 03:00N 46°10' E 031°07'611.7
2018-Jun-15 02:30N 46°04' E 031°09'612.1
2018-Jun-15 02:00N 45°58' E 031°10'911.9
2018-Jun-15 01:16N 45°50' E 031°11'311.7
2018-Jun-15 01:00N 45°46' E 031°11'611.9
2018-Jun-15 00:30N 45°40' E 031°12'611.9
2018-Jun-15 00:00N 45°35' E 031°13'612.1
2018-Jun-14 23:31N 45°29' E 031°14'1512.1
2018-Jun-14 22:15N 45°13' E 031°16'311.9
2018-Jun-14 22:00N 45°11' E 031°16'612.0
2018-Jun-14 21:30N 45°05' E 031°17'611.9
2018-Jun-14 21:00N 44°59' E 031°18'611.9
2018-Jun-14 20:31N 44°53' E 031°18'612.0
2018-Jun-14 20:00N 44°47' E 031°19'611.7
2018-Jun-14 19:30N 44°41' E 031°20'611.3
2018-Jun-14 18:59N 44°37' E 031°26'612.2
2018-Jun-14 18:29N 44°33' E 031°33'612.5
2018-Jun-14 18:00N 44°30' E 031°40'114 7.5
2018-Jun-14 02:50N 42°48' E 032°51'411.1
2018-Jun-14 02:29N 42°46' E 032°46'1111.5
2018-Jun-14 01:29N 42°43' E 032°32'811.4
2018-Jun-14 00:49N 42°40' E 032°22'411.4
2018-Jun-14 00:30N 42°39' E 032°17'611.2
2018-Jun-14 00:00N 42°37' E 032°10'511.1
2018-Jun-13 23:30N 42°35' E 032°03'611.0
2018-Jun-13 23:00N 42°33' E 031°56'611.1
2018-Jun-13 22:30N 42°31' E 031°49'611.3
2018-Jun-13 22:00N 42°30' E 031°42'611.3
2018-Jun-13 21:30N 42°28' E 031°34'611.1
2018-Jun-13 20:57N 42°26' E 031°26'1811.5
2018-Jun-13 19:21N 42°20' E 031°03'511.5
2018-Jun-13 18:55N 42°18' E 030°57'511.5
2018-Jun-13 18:30N 42°16' E 030°51'611.4
2018-Jun-13 18:00N 42°14' E 030°43'611.3
2018-Jun-13 17:30N 42°12' E 030°36'611.5
2018-Jun-13 17:00N 42°10' E 030°29'611.6
2018-Jun-13 16:29N 42°08' E 030°21'511.6
2018-Jun-13 16:00N 42°06' E 030°14'611.6
2018-Jun-13 15:30N 42°05' E 030°07'611.5
2018-Jun-13 15:00N 42°03' E 029°59'611.7
2018-Jun-13 14:30N 42°01' E 029°52'611.7
2018-Jun-13 14:00N 41°56' E 029°47'1012.0
2018-Jun-13 13:08N 41°47' E 029°39'212.0
2018-Jun-13 13:00N 41°46' E 029°38'612.0
2018-Jun-13 12:30N 41°41' E 029°33'612.1
2018-Jun-13 12:00N 41°36' E 029°29'712.1
2018-Jun-13 11:28N 41°31' E 029°24'612.0
2018-Jun-13 10:58N 41°26' E 029°19'711.5
2018-Jun-13 10:21N 41°20' E 029°14'411.8
2018-Jun-13 09:59N 41°16' E 029°11'510.8
2018-Jun-13 09:29N 41°12' E 029°07'18 8.0
2018-Jun-13 07:16N 40°55' E 028°60'11 4.4
2018-Jun-13 04:51N 40°45' E 029°01'0 0.7
2018-Jun-13 04:30N 40°45' E 029°01'0 0.7
2018-Jun-13 04:00N 40°45' E 029°01'0 0.8
2018-Jun-13 03:30N 40°46' E 029°01'0 0.8
2018-Jun-13 02:59N 40°46' E 029°01'0 0.7
2018-Jun-13 02:30N 40°46' E 029°01'1 0.6
2018-Jun-13 01:41N 40°47' E 029°01'0 0.7
2018-Jun-13 01:29N 40°47' E 029°01'0 0.8
2018-Jun-13 01:00N 40°47' E 029°01'0 0.8
2018-Jun-13 00:30N 40°48' E 029°01'0 0.8
2018-Jun-12 23:59N 40°48' E 029°01'0 0.7
2018-Jun-12 23:30N 40°49' E 029°00'3 4.1
2018-Jun-12 22:44N 40°51' E 028°58'159 6.9
2018-Jun-11 23:35N 39°46' E 025°47'13311.1
2018-Jun-11 11:36N 37°34' E 025°52'111.0
2018-Jun-11 11:30N 37°33' E 025°52'510.8
2018-Jun-11 11:00N 37°28' E 025°54'  

Dump ship's entire track history